deformed-offering

Nearby METAR Reports

 

KNUQ - Moffett Nas/Mtn, California, USA
Distance from station: N 9mi, 14km
Updated: Wed, 18-Sep-2019 11:56pm PDT

 
Barometer: 29.96 inHg , 1014.6 hPa
2019/09/19 06:56 KNUQ 190656Z A2996 RMK AO2 SLP149 PWINO $
KSJC - San Jose, California, USA
Distance from station: NE 9mi, 14km
Updated: Wed, 18-Sep-2019 11:53pm PDT
Few Clouds
Few Clouds
 Wind from NW
Wind: NW 8 mph , 13 km/h
Temperature: 61°F , 16°C
Dew Point: 55°F , 13°C
Humidity: 83%
Barometer: 29.95 inHg , 1014.2 hPa
Clouds: Few Clouds
Visibility: 10 miles , 16 km
Cloud details: Few Clouds 2000 ft
2019/09/19 06:53 KSJC 190653Z 31007KT 10SM FEW020 16/13 A2995 RMK AO2 SLP141 LAST T01610128
 
KRHV - San Jose/Reid, California, USA
Distance from station: ENE 12mi, 19km
Updated: Wed, 18-Sep-2019 9:53pm PDT
NOT Current
Partly Cloudy
Partly Cloudy
 Wind from NNW
Wind: NNW 6 mph , 9 km/h
Temperature: 63°F , 17°C
Dew Point: 54°F , 12°C
Humidity: 73%
Barometer: 29.96 inHg , 1014.6 hPa
Clouds: Partly Cloudy
Visibility: 10 miles , 16 km
Cloud details: Partly Cloudy 4500 ft
2019/09/19 04:53 KRHV 190453Z 33005KT 10SM SCT045 17/12 A2996 RMK LAST
KPAO - Palo Alto, California, USA
Distance from station: NNW 14mi, 23km
Updated: Wed, 18-Sep-2019 8:47pm PDT
NOT Current
Clear
Clear
 Wind from WNW
Wind: WNW 9 mph , 15 km/h
Temperature: 63°F , 17°C
Dew Point: 50°F , 10°C
Humidity: 64%
Barometer: 29.94 inHg , 1013.9 hPa
Clouds: Clear
Visibility: 10 miles , 16 km
2019/09/19 03:47 KPAO 190347Z 29008KT 10SM SKC 17/10 A2994
 
KSQL - San Carlos Airpo, California, USA
Distance from station: NW 21mi, 34km
Updated: Wed, 18-Sep-2019 8:47pm PDT
NOT Current
Partly Cloudy
Partly Cloudy
 Wind from W
Wind: W 9 mph , 15 km/h
Temperature: 64°F , 18°C
Dew Point: 55°F , 13°C
Humidity: 73%
Barometer: 29.95 inHg , 1014.2 hPa
Clouds: Partly Cloudy
Visibility: 10 miles , 16 km
Cloud details: Partly Cloudy 5000 ft
2019/09/19 03:47 KSQL 190347Z 26008KT 10SM SCT050 18/13 A2995 RMK LAST
KE16 - San Martin, California, USA
Distance from station: ESE 27mi, 43km
Updated: Mon, 05-Aug-2019 10:10am PDT
NOT Current
Clear
Clear
 Wind from ESE
Wind: ESE 12 mph , 19 km/h
Temperature: 66°F , 19°C
Dew Point: 57°F , 14°C
Humidity: 73%
Barometer: 30.03 inHg , 1016.9 hPa
Clouds: Clear
Visibility: 10 miles , 16 km
2019/08/05 17:10 KE16 051710Z AUTO 12010KT 10SM CLR 19/14 A3003 RMK AO2
 
KWVI - Watsonville, California, USA
Distance from station: SSE 27mi, 44km
Updated: Fri, 13-Sep-2019 2:53pm PDT
NOT Current
Clear
Clear
 Wind from W
Wind: W 10 mph , 17 km/h
Temperature: 99°F , 37°C
Dew Point: 39°F , 4°C
Humidity: 13%
Barometer: 29.93 inHg , 1013.5 hPa
Clouds: Clear
Visibility: 10 miles , 16 km
2019/09/13 21:53 KWVI 132153Z AUTO 27009KT 10SM CLR 37/04 A2993 RMK AO2 SLP133 T03670039
KHWD - Hayward, California, USA
Distance from station: N 28mi, 44km
Updated: Wed, 18-Sep-2019 11:54pm PDT
Clear
Clear
 Wind from calm
Wind: Calm
Temperature: 61°F , 16°C
Dew Point: 55°F , 13°C
Humidity: 83%
Barometer: 29.94 inHg , 1013.9 hPa
Clouds: Clear
Visibility: 10 miles , 16 km
2019/09/19 06:54 KHWD 190654Z AUTO 00000KT 10SM CLR 16/13 A2994 RMK AO2 SLP147 T01610128
 
KSFO - San Francisco, California, USA
Distance from station: NW 30mi, 49km
Updated: Wed, 18-Sep-2019 11:56pm PDT
Few Clouds
Few Clouds
 Wind from W
Wind: W 18 mph , 30 km/h
Temperature: 61°F , 16°C
Dew Point: 55°F , 13°C
Humidity: 83%
Barometer: 29.94 inHg , 1013.9 hPa
Clouds: Few Clouds
Visibility: 10 miles , 16 km
Cloud details: Few Clouds 1000 ft
2019/09/19 06:56 KSFO 190656Z 28016KT 10SM FEW010 16/13 A2994 RMK AO2 SLP137 T01610128
KHAF - Half Moon Bay, California, USA
Distance from station: WNW 31mi, 50km
Updated: Thu, 19-Sep-2019 12:20am PDT
Clear
Clear
 Wind from NNW
Wind: NNW 8 mph , 13 km/h
Temperature: 59°F , 15°C
Dew Point: 57°F , 14°C
Humidity: 94%
Barometer: 29.96 inHg , 1014.6 hPa
Clouds: Clear
Visibility: 9 miles , 14 km
2019/09/19 07:20 KHAF 190720Z AUTO 34007KT 9SM CLR 15/14 A2996 RMK AO2
 
KOAK - Oakland, California, USA
Distance from station: NNW 31mi, 50km
Updated: Wed, 18-Sep-2019 11:53pm PDT
Few Clouds
Few Clouds
 Wind from ENE
Wind: ENE 6 mph , 9 km/h
Temperature: 61°F , 16°C
Dew Point: 54°F , 12°C
Humidity: 77%
Barometer: 29.95 inHg , 1014.2 hPa
Clouds: Few Clouds
Visibility: 10 miles , 16 km
Cloud details: Few Clouds 1000 ft
2019/09/19 06:53 KOAK 190653Z 07005KT 10SM FEW010 16/12 A2995 RMK AO2 SLP139 T01560117
KLVK - Livermore, California, USA
Distance from station: NNE 31mi, 51km
Updated: Wed, 18-Sep-2019 11:53pm PDT
Clear
Clear
 Wind from calm
Wind: Calm
Temperature: 57°F , 14°C
Dew Point: 52°F , 11°C
Humidity: 82%
Barometer: 29.94 inHg , 1013.9 hPa
Clouds: Clear
Visibility: 10 miles , 16 km
2019/09/19 06:53 KLVK 190653Z AUTO 00000KT 10SM CLR 14/11 A2994 RMK AO2 SLP135 T01440111
 
KCVH - Hollister Muni, California, USA
Distance from station: SE 42mi, 68km
Updated: Thu, 19-Sep-2019 12:15am PDT
Clear
Clear
 Wind from calm
Wind: Calm
Temperature: 61°F , 16°C
Dew Point: 52°F , 11°C
Humidity: 72%
Barometer: 29.96 inHg , 1014.6 hPa
Clouds: Clear
Visibility: 10 miles , 16 km
2019/09/19 07:15 KCVH 190715Z AUTO 00000KT 10SM CLR 16/11 A2996 RMK A01
KSNS - Salinas, California, USA
Distance from station: SSE 48mi, 77km
Updated: Wed, 18-Sep-2019 11:53pm PDT
Clear
Clear
 Wind from W
Wind: W 6 mph , 9 km/h
Temperature: 63°F , 17°C
Dew Point: 54°F , 12°C
Humidity: 73%
Barometer: 29.95 inHg , 1014.2 hPa
Clouds: Clear
Visibility: 10 miles , 16 km
2019/09/19 06:53 KSNS 190653Z AUTO 27005KT 10SM CLR 17/12 A2995 RMK AO2 SLP149 T01670122
 
KMRY - Monterey, California, USA
Distance from station: SSE 49mi, 78km
Updated: Wed, 18-Sep-2019 11:54pm PDT
Clear
Clear
 Wind from WNW
Wind: WNW 3 mph , 6 km/h
Temperature: 63°F , 17°C
Dew Point: 54°F , 12°C
Humidity: 73%
Barometer: 29.96 inHg , 1014.6 hPa
Clouds: Clear
Visibility: 10 miles , 16 km
2019/09/19 06:54 KMRY 190654Z AUTO 30003KT 10SM CLR 17/12 A2996 RMK AO2 SLP157 T01720122
KCCR - Concord, California, USA
Distance from station: N 50mi, 81km
Updated: Wed, 18-Sep-2019 11:53pm PDT
Clear
Clear
 Wind from varies
Wind: varies 3 mph , 6 km/h
Temperature: 64°F , 18°C
Dew Point: 54°F , 12°C
Humidity: 68%
Barometer: 29.93 inHg , 1013.5 hPa
Clouds: Clear
Visibility: 10 miles , 16 km
2019/09/19 06:53 KCCR 190653Z AUTO VRB03KT 10SM CLR 18/12 A2993 RMK AO2 SLP121 T01780117
deformed-offering